Time,TemperatureF,DewpointF,PressureIn,WindDirection,WindDirectionDegrees,WindSpeedMPH,WindSpeedGustMPH,Humidity,HourlyPrecipIn,Conditions,Clouds,dailyrainin,SolarRadiationWatts/m^2,SoftwareType,DateUTC
2013-08-26 00:05:00,56.0,54.0,-100.00,South,179,1.0,3.0,94,0.00,,,0.00,0.000000,,2013-08-26 04:05:00,
2013-08-26 00:14:00,56.0,54.0,-100.00,South,179,1.0,3.0,94,0.00,,,0.00,0.000000,,2013-08-26 04:14:00,
2013-08-26 00:24:00,56.0,54.0,-100.00,South,179,1.0,3.0,94,0.00,,,0.00,0.000000,,2013-08-26 04:24:00,
2013-08-26 00:53:00,56.0,54.0,-100.00,ESE,117,1.0,2.0,94,0.00,,,0.00,0.000000,,2013-08-26 04:53:00,
2013-08-26 01:03:00,56.0,54.0,-100.00,ESE,117,1.0,2.0,94,0.00,,,0.00,0.000000,,2013-08-26 05:03:00,
2013-08-26 01:13:00,56.0,54.0,-100.00,ESE,117,1.0,2.0,94,0.00,,,0.00,0.000000,,2013-08-26 05:13:00,
2013-08-26 01:23:00,56.0,54.0,-100.00,ESE,117,1.0,2.0,94,0.00,,,0.00,0.000000,,2013-08-26 05:23:00,
2013-08-26 01:52:00,56.0,55.0,-100.00,East,93,1.0,4.0,96,0.00,,,0.00,0.000000,,2013-08-26 05:52:00,
2013-08-26 02:02:00,56.0,55.0,-100.00,East,93,1.0,4.0,96,0.00,,,0.00,0.000000,,2013-08-26 06:02:00,
2013-08-26 02:12:00,56.0,55.0,-100.00,East,93,1.0,4.0,96,0.00,,,0.00,0.000000,,2013-08-26 06:12:00,
2013-08-26 02:22:00,56.0,55.0,-100.00,East,93,1.0,4.0,96,0.00,,,0.00,0.000000,,2013-08-26 06:22:00,
2013-08-26 02:52:00,56.0,55.0,-100.00,SE,133,1.0,4.0,97,0.01,,,0.01,0.000000,,2013-08-26 06:52:00,
2013-08-26 03:02:00,56.0,55.0,-100.00,SE,133,1.0,4.0,97,0.01,,,0.01,0.000000,,2013-08-26 07:02:00,
2013-08-26 03:12:00,56.0,55.0,-100.00,SE,133,1.0,4.0,97,0.01,,,0.01,0.000000,,2013-08-26 07:12:00,
2013-08-26 03:22:00,56.0,55.0,-100.00,SE,133,1.0,4.0,97,0.01,,,0.01,0.000000,,2013-08-26 07:22:00,
2013-08-26 03:52:00,57.0,57.0,-100.00,SSE,159,1.0,4.0,99,0.05,,,0.06,0.000000,,2013-08-26 07:52:00,
2013-08-26 04:02:00,57.0,57.0,-100.00,SSE,159,1.0,4.0,99,0.05,,,0.06,0.000000,,2013-08-26 08:02:00,
2013-08-26 04:12:00,57.0,57.0,-100.00,SSE,159,1.0,4.0,99,0.05,,,0.06,0.000000,,2013-08-26 08:12:00,
2013-08-26 04:22:00,57.0,57.0,-100.00,SSE,159,1.0,4.0,99,0.05,,,0.06,0.000000,,2013-08-26 08:22:00,
2013-08-26 04:52:00,57.0,56.0,-100.00,SE,137,2.0,7.0,98,0.04,,,0.10,0.000000,,2013-08-26 08:52:00,
2013-08-26 05:02:00,57.0,56.0,-100.00,SE,137,2.0,7.0,98,0.04,,,0.10,0.000000,,2013-08-26 09:02:00,
2013-08-26 05:11:00,57.0,56.0,-100.00,SE,137,2.0,7.0,98,0.04,,,0.10,0.000000,,2013-08-26 09:11:00,
2013-08-26 05:22:00,57.0,56.0,-100.00,SE,137,2.0,7.0,98,0.04,,,0.10,0.000000,,2013-08-26 09:22:00,
2013-08-26 05:54:00,58.0,57.0,-100.00,ESE,106,3.0,6.0,98,0.02,,,0.12,0.000000,,2013-08-26 09:54:00,
2013-08-26 06:03:00,58.0,57.0,-100.00,ESE,106,3.0,6.0,98,0.02,,,0.12,0.000000,,2013-08-26 10:03:00,
2013-08-26 06:13:00,58.0,57.0,-100.00,ESE,106,3.0,6.0,98,0.02,,,0.12,0.000000,,2013-08-26 10:13:00,
2013-08-26 06:23:00,58.0,57.0,-100.00,ESE,106,3.0,6.0,98,0.02,,,0.12,0.000000,,2013-08-26 10:23:00,
2013-08-26 06:52:00,58.0,57.0,-100.00,ESE,110,3.0,10.0,98,0.00,,,0.12,0.000000,,2013-08-26 10:52:00,
2013-08-26 07:02:00,58.0,57.0,-100.00,ESE,110,3.0,10.0,98,0.00,,,0.12,0.000000,,2013-08-26 11:02:00,
2013-08-26 07:12:00,58.0,57.0,-100.00,ESE,110,3.0,10.0,98,0.00,,,0.12,0.000000,,2013-08-26 11:12:00,
2013-08-26 07:22:00,58.0,57.0,-100.00,ESE,110,3.0,10.0,98,0.00,,,0.12,0.000000,,2013-08-26 11:22:00,
2013-08-26 07:52:00,59.0,59.0,-100.00,ESE,115,2.0,5.0,99,0.00,,,0.12,5.000000,,2013-08-26 11:52:00,
2013-08-26 08:01:00,59.0,59.0,-100.00,ESE,115,2.0,5.0,99,0.00,,,0.12,5.000000,,2013-08-26 12:01:00,
2013-08-26 08:12:00,59.0,59.0,-100.00,ESE,115,2.0,5.0,99,0.00,,,0.12,5.000000,,2013-08-26 12:12:00,
2013-08-26 08:22:00,59.0,59.0,-100.00,ESE,115,2.0,5.0,99,0.00,,,0.12,5.000000,,2013-08-26 12:22:00,
2013-08-26 08:52:00,60.0,60.0,-100.00,NE,46,2.0,4.0,99,0.00,,,0.12,19.000000,,2013-08-26 12:52:00,
2013-08-26 09:02:00,60.0,60.0,-100.00,NE,46,2.0,4.0,99,0.00,,,0.12,19.000000,,2013-08-26 13:02:00,
2013-08-26 09:12:00,60.0,60.0,-100.00,NE,46,2.0,4.0,99,0.00,,,0.12,19.000000,,2013-08-26 13:12:00,
2013-08-26 09:22:00,60.0,60.0,-100.00,NE,46,2.0,4.0,99,0.00,,,0.12,19.000000,,2013-08-26 13:22:00,
2013-08-26 09:52:00,60.0,59.0,-100.00,East,96,2.0,4.0,98,0.00,,,0.12,27.000000,,2013-08-26 13:52:00,
2013-08-26 10:02:00,60.0,59.0,-100.00,East,96,2.0,4.0,98,0.00,,,0.12,27.000000,,2013-08-26 14:02:00,
2013-08-26 10:11:00,60.0,59.0,-100.00,East,96,2.0,4.0,98,0.00,,,0.12,27.000000,,2013-08-26 14:11:00,
2013-08-26 10:22:00,60.0,59.0,-100.00,East,96,2.0,4.0,98,0.00,,,0.12,27.000000,,2013-08-26 14:22:00,
2013-08-26 10:52:00,62.0,61.0,-100.00,NW,308,1.0,4.0,96,0.00,,,0.12,66.000000,,2013-08-26 14:52:00,
2013-08-26 11:01:00,62.0,61.0,-100.00,NW,308,1.0,4.0,96,0.00,,,0.12,66.000000,,2013-08-26 15:01:00,
2013-08-26 11:12:00,62.0,61.0,-100.00,NW,308,1.0,4.0,96,0.00,,,0.12,66.000000,,2013-08-26 15:12:00,
2013-08-26 11:22:00,62.0,61.0,-100.00,NW,308,1.0,4.0,96,0.00,,,0.12,66.000000,,2013-08-26 15:22:00,
2013-08-26 12:59:00,63.0,62.0,-100.00,East,101,3.0,4.0,95,-99.99,,,0.12,104.000000,,2013-08-26 16:59:00,
2013-08-26 13:06:00,63.0,62.0,-100.00,East,101,3.0,4.0,95,-99.99,,,0.12,104.000000,,2013-08-26 17:06:00,
2013-08-26 13:12:00,63.0,62.0,-100.00,East,101,3.0,4.0,95,-99.99,,,0.12,104.000000,,2013-08-26 17:12:00,
2013-08-26 13:24:00,63.0,62.0,-100.00,East,101,3.0,4.0,95,-99.99,,,0.12,104.000000,,2013-08-26 17:24:00,
2013-08-26 13:53:00,64.0,63.0,-100.00,East,88,1.0,4.0,96,0.00,,,0.12,79.000000,,2013-08-26 17:53:00,
2013-08-26 14:02:00,64.0,63.0,-100.00,East,88,1.0,4.0,96,0.00,,,0.12,79.000000,,2013-08-26 18:02:00,
2013-08-26 14:12:00,64.0,63.0,-100.00,East,88,1.0,4.0,96,0.00,,,0.12,79.000000,,2013-08-26 18:12:00,
2013-08-26 14:22:00,64.0,63.0,-100.00,East,88,1.0,4.0,96,0.00,,,0.12,79.000000,,2013-08-26 18:22:00,
2013-08-26 14:52:00,65.0,63.0,-100.00,WNW,303,1.0,3.0,94,0.00,,,0.12,91.000000,,2013-08-26 18:52:00,
2013-08-26 15:02:00,65.0,63.0,-100.00,WNW,303,1.0,3.0,94,0.00,,,0.12,91.000000,,2013-08-26 19:02:00,
2013-08-26 15:11:00,65.0,63.0,-100.00,WNW,303,1.0,3.0,94,0.00,,,0.12,91.000000,,2013-08-26 19:11:00,
2013-08-26 15:22:00,65.0,63.0,-100.00,WNW,303,1.0,3.0,94,0.00,,,0.12,91.000000,,2013-08-26 19:22:00,
2013-08-26 15:52:00,66.0,64.0,-100.00,East,97,2.0,5.0,92,0.00,,,0.12,149.000000,,2013-08-26 19:52:00,
2013-08-26 16:02:00,66.0,64.0,-100.00,East,97,2.0,5.0,92,0.00,,,0.12,149.000000,,2013-08-26 20:02:00,
2013-08-26 16:11:00,66.0,64.0,-100.00,East,97,2.0,5.0,92,0.00,,,0.12,149.000000,,2013-08-26 20:11:00,
2013-08-26 16:22:00,66.0,64.0,-100.00,East,97,2.0,5.0,92,0.00,,,0.12,149.000000,,2013-08-26 20:22:00,
2013-08-26 16:52:00,66.0,64.0,-100.00,ESE,112,2.0,4.0,93,0.00,,,0.12,93.000000,,2013-08-26 20:52:00,
2013-08-26 17:02:00,66.0,64.0,-100.00,ESE,112,2.0,4.0,93,0.00,,,0.12,93.000000,,2013-08-26 21:02:00,
2013-08-26 17:12:00,66.0,64.0,-100.00,ESE,112,2.0,4.0,93,0.00,,,0.12,93.000000,,2013-08-26 21:12:00,
2013-08-26 17:22:00,66.0,64.0,-100.00,ESE,112,2.0,4.0,93,0.00,,,0.12,93.000000,,2013-08-26 21:22:00,
2013-08-26 17:25:00,65.0,64.0,-100.00,NNE,16,0.0,4.0,96,0.00,,,0.12,45.000000,,2013-08-26 21:25:00,
2013-08-26 17:55:00,65.0,64.0,-100.00,NNE,16,0.0,4.0,96,0.00,,,0.12,45.000000,,2013-08-26 21:55:00,
2013-08-26 18:07:00,65.0,64.0,-100.00,NNE,16,0.0,4.0,96,0.00,,,0.12,45.000000,,2013-08-26 22:07:00,
2013-08-26 18:16:00,65.0,64.0,-100.00,NNE,16,0.0,4.0,96,0.00,,,0.12,45.000000,,2013-08-26 22:16:00,
2013-08-26 18:53:00,65.0,64.0,-100.00,East,84,2.0,3.0,96,0.00,,,0.12,46.000000,,2013-08-26 22:53:00,
2013-08-26 19:03:00,65.0,64.0,-100.00,East,84,2.0,3.0,96,0.00,,,0.12,46.000000,,2013-08-26 23:03:00,
2013-08-26 19:13:00,65.0,64.0,-100.00,East,84,2.0,3.0,96,0.00,,,0.12,46.000000,,2013-08-26 23:13:00,
2013-08-26 19:22:00,65.0,64.0,-100.00,East,84,2.0,3.0,96,0.00,,,0.12,46.000000,,2013-08-26 23:22:00,
2013-08-26 19:52:00,64.0,63.0,-100.00,ESE,103,0.0,4.0,98,0.00,,,0.12,18.000000,,2013-08-26 23:52:00,
2013-08-26 20:01:00,64.0,63.0,-100.00,ESE,103,0.0,4.0,98,0.00,,,0.12,18.000000,,2013-08-27 00:01:00,
2013-08-26 20:11:00,64.0,63.0,-100.00,ESE,103,0.0,4.0,98,0.00,,,0.12,18.000000,,2013-08-27 00:11:00,
2013-08-26 20:22:00,64.0,63.0,-100.00,ESE,103,0.0,4.0,98,0.00,,,0.12,18.000000,,2013-08-27 00:22:00,
2013-08-26 20:52:00,64.0,64.0,-100.00,ENE,64,2.0,4.0,99,0.00,,,0.12,0.000000,,2013-08-27 00:52:00,
2013-08-26 21:02:00,64.0,64.0,-100.00,ENE,64,2.0,4.0,99,0.00,,,0.12,0.000000,,2013-08-27 01:02:00,
2013-08-26 21:12:00,64.0,64.0,-100.00,ENE,64,2.0,4.0,99,0.00,,,0.12,0.000000,,2013-08-27 01:12:00,
2013-08-26 21:22:00,64.0,64.0,-100.00,ENE,64,2.0,4.0,99,0.00,,,0.12,0.000000,,2013-08-27 01:22:00,
2013-08-26 21:52:00,63.0,63.0,-100.00,SSE,164,0.0,4.0,99,0.00,,,0.12,0.000000,,2013-08-27 01:52:00,
2013-08-26 22:02:00,63.0,63.0,-100.00,SSE,164,0.0,4.0,99,0.00,,,0.12,0.000000,,2013-08-27 02:02:00,
2013-08-26 22:12:00,63.0,63.0,-100.00,SSE,164,0.0,4.0,99,0.00,,,0.12,0.000000,,2013-08-27 02:12:00,
2013-08-26 22:22:00,63.0,63.0,-100.00,SSE,164,0.0,4.0,99,0.00,,,0.12,0.000000,,2013-08-27 02:22:00,
2013-08-26 22:52:00,62.0,62.0,-100.00,SE,131,1.0,3.0,99,0.00,,,0.12,0.000000,,2013-08-27 02:52:00,
2013-08-26 23:02:00,62.0,62.0,-100.00,SE,131,1.0,3.0,99,0.00,,,0.12,0.000000,,2013-08-27 03:02:00,
2013-08-26 23:12:00,62.0,62.0,-100.00,SE,131,1.0,3.0,99,0.00,,,0.12,0.000000,,2013-08-27 03:12:00,
2013-08-26 23:23:00,62.0,62.0,-100.00,SE,131,1.0,3.0,99,0.00,,,0.12,0.000000,,2013-08-27 03:23:00,
2013-08-26 23:25:00,62.0,62.0,-100.00,WNW,283,0.0,3.0,99,0.00,,,0.12,0.000000,,2013-08-27 03:25:00,
2013-08-26 23:58:00,62.0,62.0,-100.00,WNW,283,0.0,3.0,99,0.00,,,0.12,0.000000,,2013-08-27 03:58:00,